sensor_id;sensor_type;location;lat;lon;timestamp;temperature;humidity
38237;DHT22;50101;49.438;11.098;2023-12-04T00:00:31;19.10;52.00
38237;DHT22;50101;49.438;11.098;2023-12-04T00:02:59;19.20;52.10
38237;DHT22;50101;49.438;11.098;2023-12-04T00:05:25;19.10;52.00
38237;DHT22;50101;49.438;11.098;2023-12-04T00:07:52;19.10;51.90
38237;DHT22;50101;49.438;11.098;2023-12-04T00:10:19;19.10;51.90
38237;DHT22;50101;49.438;11.098;2023-12-04T00:12:46;19.10;52.00
38237;DHT22;50101;49.438;11.098;2023-12-04T00:15:13;19.10;51.90
38237;DHT22;50101;49.438;11.098;2023-12-04T00:17:40;19.10;51.90
38237;DHT22;50101;49.438;11.098;2023-12-04T00:20:08;19.10;52.00
38237;DHT22;50101;49.438;11.098;2023-12-04T00:22:38;19.00;51.90
38237;DHT22;50101;49.438;11.098;2023-12-04T00:25:06;19.10;52.00
38237;DHT22;50101;49.438;11.098;2023-12-04T00:27:33;19.00;51.90
38237;DHT22;50101;49.438;11.098;2023-12-04T00:30:00;19.00;51.80
38237;DHT22;50101;49.438;11.098;2023-12-04T00:32:30;19.00;52.60
38237;DHT22;50101;49.438;11.098;2023-12-04T00:34:57;19.00;51.80
38237;DHT22;50101;49.438;11.098;2023-12-04T00:37:26;19.00;51.30
38237;DHT22;50101;49.438;11.098;2023-12-04T00:39:53;19.00;51.80
38237;DHT22;50101;49.438;11.098;2023-12-04T00:42:19;19.00;51.80
38237;DHT22;50101;49.438;11.098;2023-12-04T00:44:46;19.00;51.80
38237;DHT22;50101;49.438;11.098;2023-12-04T00:47:13;19.00;51.80
38237;DHT22;50101;49.438;11.098;2023-12-04T00:49:39;19.00;51.80
38237;DHT22;50101;49.438;11.098;2023-12-04T00:52:06;19.00;51.80
38237;DHT22;50101;49.438;11.098;2023-12-04T00:54:33;19.00;51.80
38237;DHT22;50101;49.438;11.098;2023-12-04T00:57:00;19.00;51.80
38237;DHT22;50101;49.438;11.098;2023-12-04T00:59:26;18.90;51.70
38237;DHT22;50101;49.438;11.098;2023-12-04T01:01:53;19.00;51.80
38237;DHT22;50101;49.438;11.098;2023-12-04T01:04:20;18.90;51.70
38237;DHT22;50101;49.438;11.098;2023-12-04T01:06:46;18.90;51.70
38237;DHT22;50101;49.438;11.098;2023-12-04T01:09:13;18.90;51.70
38237;DHT22;50101;49.438;11.098;2023-12-04T01:11:40;18.90;51.70
38237;DHT22;50101;49.438;11.098;2023-12-04T01:14:06;18.90;51.60
38237;DHT22;50101;49.438;11.098;2023-12-04T01:16:34;18.90;51.20
38237;DHT22;50101;49.438;11.098;2023-12-04T01:19:00;18.90;51.70
38237;DHT22;50101;49.438;11.098;2023-12-04T01:21:27;18.90;51.70
38237;DHT22;50101;49.438;11.098;2023-12-04T01:23:54;18.90;51.70
38237;DHT22;50101;49.438;11.098;2023-12-04T01:26:21;18.90;51.60
38237;DHT22;50101;49.438;11.098;2023-12-04T01:28:48;18.80;51.60
38237;DHT22;50101;49.438;11.098;2023-12-04T01:31:15;18.80;51.60
38237;DHT22;50101;49.438;11.098;2023-12-04T01:33:42;18.80;51.60
38237;DHT22;50101;49.438;11.098;2023-12-04T01:36:08;18.80;51.50
38237;DHT22;50101;49.438;11.098;2023-12-04T01:38:37;18.80;51.50
38237;DHT22;50101;49.438;11.098;2023-12-04T01:41:04;18.80;51.50
38237;DHT22;50101;49.438;11.098;2023-12-04T01:43:31;18.80;51.60
38237;DHT22;50101;49.438;11.098;2023-12-04T01:46:00;18.80;51.60
38237;DHT22;50101;49.438;11.098;2023-12-04T01:48:28;18.80;51.50
38237;DHT22;50101;49.438;11.098;2023-12-04T01:50:56;18.80;51.50
38237;DHT22;50101;49.438;11.098;2023-12-04T01:53:24;18.80;51.50
38237;DHT22;50101;49.438;11.098;2023-12-04T01:55:51;18.80;51.50
38237;DHT22;50101;49.438;11.098;2023-12-04T01:58:17;18.80;51.50
38237;DHT22;50101;49.438;11.098;2023-12-04T02:00:44;18.80;51.50
38237;DHT22;50101;49.438;11.098;2023-12-04T02:03:11;18.80;51.50
38237;DHT22;50101;49.438;11.098;2023-12-04T02:05:39;18.70;51.40
38237;DHT22;50101;49.438;11.098;2023-12-04T02:08:06;18.70;50.90
38237;DHT22;50101;49.438;11.098;2023-12-04T02:10:33;18.70;51.40
38237;DHT22;50101;49.438;11.098;2023-12-04T02:12:59;18.70;51.40
38237;DHT22;50101;49.438;11.098;2023-12-04T02:15:26;18.70;51.40
38237;DHT22;50101;49.438;11.098;2023-12-04T02:17:54;18.70;51.40
38237;DHT22;50101;49.438;11.098;2023-12-04T02:20:31;18.70;51.40
38237;DHT22;50101;49.438;11.098;2023-12-04T02:22:57;18.70;51.40
38237;DHT22;50101;49.438;11.098;2023-12-04T02:25:24;18.70;51.40
38237;DHT22;50101;49.438;11.098;2023-12-04T02:28:05;18.70;51.40
38237;DHT22;50101;49.438;11.098;2023-12-04T02:30:34;18.70;51.40
38237;DHT22;50101;49.438;11.098;2023-12-04T02:33:05;18.60;51.30
38237;DHT22;50101;49.438;11.098;2023-12-04T02:35:34;18.60;51.30
38237;DHT22;50101;49.438;11.098;2023-12-04T02:38:02;18.70;51.40
38237;DHT22;50101;49.438;11.098;2023-12-04T02:40:29;18.60;51.30
38237;DHT22;50101;49.438;11.098;2023-12-04T02:42:56;18.60;51.40
38237;DHT22;50101;49.438;11.098;2023-12-04T02:45:23;18.60;51.30
38237;DHT22;50101;49.438;11.098;2023-12-04T02:47:50;18.60;50.70
38237;DHT22;50101;49.438;11.098;2023-12-04T02:50:16;18.60;51.30
38237;DHT22;50101;49.438;11.098;2023-12-04T02:52:43;18.60;51.20
38237;DHT22;50101;49.438;11.098;2023-12-04T02:55:10;18.60;51.30
38237;DHT22;50101;49.438;11.098;2023-12-04T02:57:37;18.60;51.90
38237;DHT22;50101;49.438;11.098;2023-12-04T03:00:04;18.60;51.30
38237;DHT22;50101;49.438;11.098;2023-12-04T03:02:31;18.60;51.30
38237;DHT22;50101;49.438;11.098;2023-12-04T03:04:58;18.60;51.20
38237;DHT22;50101;49.438;11.098;2023-12-04T03:07:24;18.60;51.20
38237;DHT22;50101;49.438;11.098;2023-12-04T03:09:53;18.60;51.20
38237;DHT22;50101;49.438;11.098;2023-12-04T03:12:20;18.50;51.10
38237;DHT22;50101;49.438;11.098;2023-12-04T03:14:46;18.50;51.10
38237;DHT22;50101;49.438;11.098;2023-12-04T03:17:13;18.50;51.10
38237;DHT22;50101;49.438;11.098;2023-12-04T03:19:40;18.50;51.10
38237;DHT22;50101;49.438;11.098;2023-12-04T03:22:07;18.50;51.10
38237;DHT22;50101;49.438;11.098;2023-12-04T03:24:33;18.50;51.10
38237;DHT22;50101;49.438;11.098;2023-12-04T03:27:00;18.50;51.10
38237;DHT22;50101;49.438;11.098;2023-12-04T03:29:27;18.50;50.60
38237;DHT22;50101;49.438;11.098;2023-12-04T03:31:54;18.50;51.00
38237;DHT22;50101;49.438;11.098;2023-12-04T03:34:20;18.50;51.00
38237;DHT22;50101;49.438;11.098;2023-12-04T03:36:47;18.50;51.00
38237;DHT22;50101;49.438;11.098;2023-12-04T03:39:14;18.50;51.00
38237;DHT22;50101;49.438;11.098;2023-12-04T03:41:41;18.50;51.00
38237;DHT22;50101;49.438;11.098;2023-12-04T03:44:07;18.50;51.00
38237;DHT22;50101;49.438;11.098;2023-12-04T03:46:34;18.50;51.00
38237;DHT22;50101;49.438;11.098;2023-12-04T03:49:01;18.40;50.90
38237;DHT22;50101;49.438;11.098;2023-12-04T03:51:27;18.40;51.00
38237;DHT22;50101;49.438;11.098;2023-12-04T03:53:54;18.40;51.00
38237;DHT22;50101;49.438;11.098;2023-12-04T03:56:21;18.40;50.90
38237;DHT22;50101;49.438;11.098;2023-12-04T03:58:47;18.40;50.90
38237;DHT22;50101;49.438;11.098;2023-12-04T04:01:14;18.40;51.00
38237;DHT22;50101;49.438;11.098;2023-12-04T04:03:41;18.40;51.00
38237;DHT22;50101;49.438;11.098;2023-12-04T04:06:12;18.40;50.90
38237;DHT22;50101;49.438;11.098;2023-12-04T04:08:38;18.40;50.90
38237;DHT22;50101;49.438;11.098;2023-12-04T04:11:05;18.40;50.90
38237;DHT22;50101;49.438;11.098;2023-12-04T04:13:32;18.40;50.90
38237;DHT22;50101;49.438;11.098;2023-12-04T04:15:58;18.40;50.90
38237;DHT22;50101;49.438;11.098;2023-12-04T04:18:25;18.30;50.80
38237;DHT22;50101;49.438;11.098;2023-12-04T04:20:52;18.30;50.80
38237;DHT22;50101;49.438;11.098;2023-12-04T04:23:19;18.30;50.80
38237;DHT22;50101;49.438;11.098;2023-12-04T04:25:45;18.30;50.80
38237;DHT22;50101;49.438;11.098;2023-12-04T04:28:12;18.30;50.80
38237;DHT22;50101;49.438;11.098;2023-12-04T04:30:39;18.30;50.80
38237;DHT22;50101;49.438;11.098;2023-12-04T04:33:06;18.30;50.80
38237;DHT22;50101;49.438;11.098;2023-12-04T04:35:33;18.30;50.80
38237;DHT22;50101;49.438;11.098;2023-12-04T04:38:00;18.30;50.80
38237;DHT22;50101;49.438;11.098;2023-12-04T04:40:27;18.30;50.70
38237;DHT22;50101;49.438;11.098;2023-12-04T04:42:53;18.30;50.70
38237;DHT22;50101;49.438;11.098;2023-12-04T04:45:20;18.30;50.70
38237;DHT22;50101;49.438;11.098;2023-12-04T04:47:47;18.30;50.80
38237;DHT22;50101;49.438;11.098;2023-12-04T04:50:13;18.20;50.70
38237;DHT22;50101;49.438;11.098;2023-12-04T04:52:40;18.20;50.70
38237;DHT22;50101;49.438;11.098;2023-12-04T04:55:07;18.20;50.70
38237;DHT22;50101;49.438;11.098;2023-12-04T04:57:34;18.20;50.70
38237;DHT22;50101;49.438;11.098;2023-12-04T05:00:01;18.20;50.60
38237;DHT22;50101;49.438;11.098;2023-12-04T05:02:28;18.20;50.60
38237;DHT22;50101;49.438;11.098;2023-12-04T05:04:54;18.20;50.60
38237;DHT22;50101;49.438;11.098;2023-12-04T05:07:21;18.20;50.10
38237;DHT22;50101;49.438;11.098;2023-12-04T05:09:48;18.20;50.60
38237;DHT22;50101;49.438;11.098;2023-12-04T05:12:15;18.20;50.60
38237;DHT22;50101;49.438;11.098;2023-12-04T05:14:41;18.20;50.60
38237;DHT22;50101;49.438;11.098;2023-12-04T05:17:08;18.20;50.60
38237;DHT22;50101;49.438;11.098;2023-12-04T05:19:34;18.10;50.60
38237;DHT22;50101;49.438;11.098;2023-12-04T05:22:01;18.10;50.60
38237;DHT22;50101;49.438;11.098;2023-12-04T05:24:28;18.10;50.60
38237;DHT22;50101;49.438;11.098;2023-12-04T05:26:55;18.10;50.60
38237;DHT22;50101;49.438;11.098;2023-12-04T05:29:21;18.20;50.80
38237;DHT22;50101;49.438;11.098;2023-12-04T05:31:48;18.10;50.80
38237;DHT22;50101;49.438;11.098;2023-12-04T05:34:15;18.10;50.80
38237;DHT22;50101;49.438;11.098;2023-12-04T05:36:42;18.10;50.80
38237;DHT22;50101;49.438;11.098;2023-12-04T05:39:08;18.10;50.80
38237;DHT22;50101;49.438;11.098;2023-12-04T05:41:35;18.10;50.70
38237;DHT22;50101;49.438;11.098;2023-12-04T05:44:02;18.20;50.80
38237;DHT22;50101;49.438;11.098;2023-12-04T05:46:29;18.10;50.90
38237;DHT22;50101;49.438;11.098;2023-12-04T05:48:55;18.10;51.20
38237;DHT22;50101;49.438;11.098;2023-12-04T05:51:22;18.10;51.30
38237;DHT22;50101;49.438;11.098;2023-12-04T05:53:49;18.20;51.30
38237;DHT22;50101;49.438;11.098;2023-12-04T05:56:16;18.20;51.80
38237;DHT22;50101;49.438;11.098;2023-12-04T05:58:42;18.20;50.60
38237;DHT22;50101;49.438;11.098;2023-12-04T06:01:09;18.20;50.90
38237;DHT22;50101;49.438;11.098;2023-12-04T06:03:36;18.20;50.90
38237;DHT22;50101;49.438;11.098;2023-12-04T06:06:03;18.20;51.00
38237;DHT22;50101;49.438;11.098;2023-12-04T06:08:31;18.20;51.00
38237;DHT22;50101;49.438;11.098;2023-12-04T06:10:58;18.20;51.00
38237;DHT22;50101;49.438;11.098;2023-12-04T06:13:24;18.20;51.00
38237;DHT22;50101;49.438;11.098;2023-12-04T06:15:51;18.30;51.60
38237;DHT22;50101;49.438;11.098;2023-12-04T06:18:18;18.30;51.00
38237;DHT22;50101;49.438;11.098;2023-12-04T06:20:44;18.30;51.00
38237;DHT22;50101;49.438;11.098;2023-12-04T06:23:11;18.30;51.00
38237;DHT22;50101;49.438;11.098;2023-12-04T06:25:38;18.30;51.00
38237;DHT22;50101;49.438;11.098;2023-12-04T06:28:05;18.30;50.90
38237;DHT22;50101;49.438;11.098;2023-12-04T06:30:32;18.30;50.80
38237;DHT22;50101;49.438;11.098;2023-12-04T06:32:59;18.30;50.80
38237;DHT22;50101;49.438;11.098;2023-12-04T06:35:26;18.40;50.90
38237;DHT22;50101;49.438;11.098;2023-12-04T06:37:54;18.50;50.40
38237;DHT22;50101;49.438;11.098;2023-12-04T06:40:21;18.50;51.20
38237;DHT22;50101;49.438;11.098;2023-12-04T06:42:49;18.50;51.30
38237;DHT22;50101;49.438;11.098;2023-12-04T06:45:16;18.50;51.40
38237;DHT22;50101;49.438;11.098;2023-12-04T06:47:43;18.60;50.90
38237;DHT22;50101;49.438;11.098;2023-12-04T06:50:12;18.70;51.40
38237;DHT22;50101;49.438;11.098;2023-12-04T06:52:38;18.70;51.40
38237;DHT22;50101;49.438;11.098;2023-12-04T06:55:06;18.70;51.60
38237;DHT22;50101;49.438;11.098;2023-12-04T06:57:33;18.80;51.30
38237;DHT22;50101;49.438;11.098;2023-12-04T06:59:59;18.80;51.80
38237;DHT22;50101;49.438;11.098;2023-12-04T07:02:26;18.80;51.90
38237;DHT22;50101;49.438;11.098;2023-12-04T07:04:53;18.80;51.90
38237;DHT22;50101;49.438;11.098;2023-12-04T07:07:19;18.80;51.80
38237;DHT22;50101;49.438;11.098;2023-12-04T07:09:46;18.80;51.80
38237;DHT22;50101;49.438;11.098;2023-12-04T07:12:13;18.80;52.10
38237;DHT22;50101;49.438;11.098;2023-12-04T07:14:40;18.90;52.20
38237;DHT22;50101;49.438;11.098;2023-12-04T07:17:06;18.90;52.10
38237;DHT22;50101;49.438;11.098;2023-12-04T07:19:33;18.90;51.90
38237;DHT22;50101;49.438;11.098;2023-12-04T07:22:00;18.90;51.90
38237;DHT22;50101;49.438;11.098;2023-12-04T07:24:27;19.00;51.90
38237;DHT22;50101;49.438;11.098;2023-12-04T07:26:53;19.00;51.70
38237;DHT22;50101;49.438;11.098;2023-12-04T07:29:20;19.00;51.80
38237;DHT22;50101;49.438;11.098;2023-12-04T07:31:47;19.10;51.70
38237;DHT22;50101;49.438;11.098;2023-12-04T07:34:14;19.00;51.70
38237;DHT22;50101;49.438;11.098;2023-12-04T07:36:41;19.00;51.80
38237;DHT22;50101;49.438;11.098;2023-12-04T07:39:07;19.10;51.30
38237;DHT22;50101;49.438;11.098;2023-12-04T07:41:35;19.10;51.80
38237;DHT22;50101;49.438;11.098;2023-12-04T07:44:02;19.10;51.70
38237;DHT22;50101;49.438;11.098;2023-12-04T07:46:30;19.10;51.70
38237;DHT22;50101;49.438;11.098;2023-12-04T07:48:56;19.20;51.90
38237;DHT22;50101;49.438;11.098;2023-12-04T07:51:23;19.20;51.70
38237;DHT22;50101;49.438;11.098;2023-12-04T07:53:50;19.20;51.50
38237;DHT22;50101;49.438;11.098;2023-12-04T07:56:17;19.20;51.60
38237;DHT22;50101;49.438;11.098;2023-12-04T07:58:43;19.30;52.00
38237;DHT22;50101;49.438;11.098;2023-12-04T08:01:10;19.20;52.10
38237;DHT22;50101;49.438;11.098;2023-12-04T08:03:37;19.30;51.90
38237;DHT22;50101;49.438;11.098;2023-12-04T08:06:06;19.30;51.70
38237;DHT22;50101;49.438;11.098;2023-12-04T08:08:32;19.30;51.80
38237;DHT22;50101;49.438;11.098;2023-12-04T08:10:59;19.30;51.90
38237;DHT22;50101;49.438;11.098;2023-12-04T08:13:26;19.30;51.90
38237;DHT22;50101;49.438;11.098;2023-12-04T08:15:53;19.30;51.60
38237;DHT22;50101;49.438;11.098;2023-12-04T08:18:20;19.40;51.50
38237;DHT22;50101;49.438;11.098;2023-12-04T08:20:47;19.50;51.30
38237;DHT22;50101;49.438;11.098;2023-12-04T08:23:14;19.40;51.20
38237;DHT22;50101;49.438;11.098;2023-12-04T08:25:41;19.40;51.60
38237;DHT22;50101;49.438;11.098;2023-12-04T08:28:08;19.40;51.00
38237;DHT22;50101;49.438;11.098;2023-12-04T08:30:35;19.40;51.50
38237;DHT22;50101;49.438;11.098;2023-12-04T08:33:02;19.40;51.90
38237;DHT22;50101;49.438;11.098;2023-12-04T08:35:29;19.40;51.90
38237;DHT22;50101;49.438;11.098;2023-12-04T08:37:56;19.50;51.90
38237;DHT22;50101;49.438;11.098;2023-12-04T08:40:23;19.50;51.80
38237;DHT22;50101;49.438;11.098;2023-12-04T08:42:49;19.50;51.30
38237;DHT22;50101;49.438;11.098;2023-12-04T08:45:16;19.50;51.40
38237;DHT22;50101;49.438;11.098;2023-12-04T08:47:45;19.50;50.70
38237;DHT22;50101;49.438;11.098;2023-12-04T08:50:13;19.50;51.10
38237;DHT22;50101;49.438;11.098;2023-12-04T08:52:39;19.60;51.10
38237;DHT22;50101;49.438;11.098;2023-12-04T08:55:08;19.50;51.30
38237;DHT22;50101;49.438;11.098;2023-12-04T08:57:35;19.50;51.30
38237;DHT22;50101;49.438;11.098;2023-12-04T09:00:03;19.50;52.40
38237;DHT22;50101;49.438;11.098;2023-12-04T09:02:30;19.50;51.50
38237;DHT22;50101;49.438;11.098;2023-12-04T09:04:57;19.50;51.50
38237;DHT22;50101;49.438;11.098;2023-12-04T09:07:24;19.60;51.20
38237;DHT22;50101;49.438;11.098;2023-12-04T09:10:11;19.60;51.50
38237;DHT22;50101;49.438;11.098;2023-12-04T09:12:51;19.60;51.40
38237;DHT22;50101;49.438;11.098;2023-12-04T09:15:18;19.60;51.50
38237;DHT22;50101;49.438;11.098;2023-12-04T09:17:44;19.60;51.00
38237;DHT22;50101;49.438;11.098;2023-12-04T09:20:11;19.60;51.50
38237;DHT22;50101;49.438;11.098;2023-12-04T09:22:38;19.60;51.50
38237;DHT22;50101;49.438;11.098;2023-12-04T09:25:18;19.60;51.40
38237;DHT22;50101;49.438;11.098;2023-12-04T09:27:45;19.60;51.40
38237;DHT22;50101;49.438;11.098;2023-12-04T09:30:12;19.60;51.50
38237;DHT22;50101;49.438;11.098;2023-12-04T09:32:40;19.60;51.40
38237;DHT22;50101;49.438;11.098;2023-12-04T09:35:07;19.50;51.40
38237;DHT22;50101;49.438;11.098;2023-12-04T09:37:34;19.60;51.10
38237;DHT22;50101;49.438;11.098;2023-12-04T09:40:01;19.60;51.60
38237;DHT22;50101;49.438;11.098;2023-12-04T09:42:29;19.60;51.90
38237;DHT22;50101;49.438;11.098;2023-12-04T09:44:58;19.60;52.20
38237;DHT22;50101;49.438;11.098;2023-12-04T09:47:26;19.60;51.80
38237;DHT22;50101;49.438;11.098;2023-12-04T09:49:53;19.60;51.90
38237;DHT22;50101;49.438;11.098;2023-12-04T09:52:21;19.60;51.90
38237;DHT22;50101;49.438;11.098;2023-12-04T09:54:48;19.60;51.90
38237;DHT22;50101;49.438;11.098;2023-12-04T09:57:16;19.60;51.40
38237;DHT22;50101;49.438;11.098;2023-12-04T09:59:44;19.50;51.30
38237;DHT22;50101;49.438;11.098;2023-12-04T10:02:12;19.50;51.80
38237;DHT22;50101;49.438;11.098;2023-12-04T10:04:40;19.50;51.80
38237;DHT22;50101;49.438;11.098;2023-12-04T10:07:08;19.50;51.80
38237;DHT22;50101;49.438;11.098;2023-12-04T10:09:35;19.50;51.60
38237;DHT22;50101;49.438;11.098;2023-12-04T10:12:01;19.60;51.70
38237;DHT22;50101;49.438;11.098;2023-12-04T10:14:28;19.50;51.60
38237;DHT22;50101;49.438;11.098;2023-12-04T10:16:56;19.50;51.50
38237;DHT22;50101;49.438;11.098;2023-12-04T10:19:25;19.50;52.10
38237;DHT22;50101;49.438;11.098;2023-12-04T10:21:55;19.50;51.60
38237;DHT22;50101;49.438;11.098;2023-12-04T10:24:30;19.50;51.40
38237;DHT22;50101;49.438;11.098;2023-12-04T10:26:57;19.50;51.30
38237;DHT22;50101;49.438;11.098;2023-12-04T10:29:27;19.50;51.10
38237;DHT22;50101;49.438;11.098;2023-12-04T10:31:54;19.50;50.90
38237;DHT22;50101;49.438;11.098;2023-12-04T10:34:22;19.40;50.70
38237;DHT22;50101;49.438;11.098;2023-12-04T10:36:52;19.50;50.70
38237;DHT22;50101;49.438;11.098;2023-12-04T10:39:20;19.50;50.70
38237;DHT22;50101;49.438;11.098;2023-12-04T10:41:59;19.50;50.70
38237;DHT22;50101;49.438;11.098;2023-12-04T10:44:27;19.50;50.80
38237;DHT22;50101;49.438;11.098;2023-12-04T10:46:56;19.50;50.30
38237;DHT22;50101;49.438;11.098;2023-12-04T10:49:27;19.50;50.90
38237;DHT22;50101;49.438;11.098;2023-12-04T10:51:58;19.50;50.80
38237;DHT22;50101;49.438;11.098;2023-12-04T10:54:26;19.50;50.90
38237;DHT22;50101;49.438;11.098;2023-12-04T10:56:57;19.50;51.00
38237;DHT22;50101;49.438;11.098;2023-12-04T10:59:27;19.40;50.80
38237;DHT22;50101;49.438;11.098;2023-12-04T11:01:55;19.50;52.10
38237;DHT22;50101;49.438;11.098;2023-12-04T11:04:23;19.50;52.10
38237;DHT22;50101;49.438;11.098;2023-12-04T11:06:53;19.50;52.40
38237;DHT22;50101;49.438;11.098;2023-12-04T11:09:21;19.50;52.60
38237;DHT22;50101;49.438;11.098;2023-12-04T11:11:57;19.60;52.70
38237;DHT22;50101;49.438;11.098;2023-12-04T11:14:31;19.50;52.20
38237;DHT22;50101;49.438;11.098;2023-12-04T11:17:04;19.50;52.20
38237;DHT22;50101;49.438;11.098;2023-12-04T11:19:40;19.50;52.20
38237;DHT22;50101;49.438;11.098;2023-12-04T11:22:09;19.40;52.30
38237;DHT22;50101;49.438;11.098;2023-12-04T11:24:37;19.40;52.20
38237;DHT22;50101;49.438;11.098;2023-12-04T11:27:04;19.40;52.30
38237;DHT22;50101;49.438;11.098;2023-12-04T11:29:32;19.30;52.30
38237;DHT22;50101;49.438;11.098;2023-12-04T11:31:59;19.30;52.30
38237;DHT22;50101;49.438;11.098;2023-12-04T11:34:26;19.30;52.40
38237;DHT22;50101;49.438;11.098;2023-12-04T11:36:53;19.40;53.30
38237;DHT22;50101;49.438;11.098;2023-12-04T11:39:22;19.30;52.70
38237;DHT22;50101;49.438;11.098;2023-12-04T11:41:52;19.30;52.80
38237;DHT22;50101;49.438;11.098;2023-12-04T11:44:19;19.40;53.10
38237;DHT22;50101;49.438;11.098;2023-12-04T11:47:03;19.40;52.70
38237;DHT22;50101;49.438;11.098;2023-12-04T11:49:32;19.40;53.20
38237;DHT22;50101;49.438;11.098;2023-12-04T11:52:06;19.50;53.20
38237;DHT22;50101;49.438;11.098;2023-12-04T11:54:55;19.50;53.30
38237;DHT22;50101;49.438;11.098;2023-12-04T11:57:23;19.50;53.20
38237;DHT22;50101;49.438;11.098;2023-12-04T12:02:44;19.50;53.20
38237;DHT22;50101;49.438;11.098;2023-12-04T12:05:33;19.50;53.20
38237;DHT22;50101;49.438;11.098;2023-12-04T12:08:05;19.50;53.20
38237;DHT22;50101;49.438;11.098;2023-12-04T12:10:33;19.50;53.20
38237;DHT22;50101;49.438;11.098;2023-12-04T12:13:00;19.40;53.10
38237;DHT22;50101;49.438;11.098;2023-12-04T12:15:28;19.50;53.30
38237;DHT22;50101;49.438;11.098;2023-12-04T12:17:55;19.50;53.10
38237;DHT22;50101;49.438;11.098;2023-12-04T12:20:22;19.50;53.80
38237;DHT22;50101;49.438;11.098;2023-12-04T12:22:49;19.50;53.20
38237;DHT22;50101;49.438;11.098;2023-12-04T12:25:17;19.50;53.20
38237;DHT22;50101;49.438;11.098;2023-12-04T12:27:45;19.50;53.20
38237;DHT22;50101;49.438;11.098;2023-12-04T12:30:13;19.50;53.20
38237;DHT22;50101;49.438;11.098;2023-12-04T12:32:41;19.50;53.20
38237;DHT22;50101;49.438;11.098;2023-12-04T12:35:07;19.50;53.10
38237;DHT22;50101;49.438;11.098;2023-12-04T12:37:35;19.50;52.70
38237;DHT22;50101;49.438;11.098;2023-12-04T12:40:04;19.60;52.80
38237;DHT22;50101;49.438;11.098;2023-12-04T12:42:31;19.50;52.90
38237;DHT22;50101;49.438;11.098;2023-12-04T12:45:01;19.50;52.90
38237;DHT22;50101;49.438;11.098;2023-12-04T12:47:29;19.50;52.70
38237;DHT22;50101;49.438;11.098;2023-12-04T12:49:56;19.50;53.00
38237;DHT22;50101;49.438;11.098;2023-12-04T12:52:23;19.50;53.00
38237;DHT22;50101;49.438;11.098;2023-12-04T12:54:50;19.50;52.40
38237;DHT22;50101;49.438;11.098;2023-12-04T12:57:18;19.50;52.10
38237;DHT22;50101;49.438;11.098;2023-12-04T12:59:45;19.50;52.50
38237;DHT22;50101;49.438;11.098;2023-12-04T13:02:11;19.50;52.60
38237;DHT22;50101;49.438;11.098;2023-12-04T13:04:41;19.40;52.40
38237;DHT22;50101;49.438;11.098;2023-12-04T13:07:08;19.40;52.40
38237;DHT22;50101;49.438;11.098;2023-12-04T13:09:36;19.40;52.40
38237;DHT22;50101;49.438;11.098;2023-12-04T13:12:04;17.90;51.10
38237;DHT22;50101;49.438;11.098;2023-12-04T13:14:31;19.40;52.30
38237;DHT22;50101;49.438;11.098;2023-12-04T13:16:58;19.30;52.20
38237;DHT22;50101;49.438;11.098;2023-12-04T13:19:25;19.30;52.30
38237;DHT22;50101;49.438;11.098;2023-12-04T13:21:53;19.30;52.30
38237;DHT22;50101;49.438;11.098;2023-12-04T13:24:21;19.30;52.20
38237;DHT22;50101;49.438;11.098;2023-12-04T13:26:47;19.30;52.20
38237;DHT22;50101;49.438;11.098;2023-12-04T13:29:14;19.30;52.20
38237;DHT22;50101;49.438;11.098;2023-12-04T13:31:42;19.30;52.20
38237;DHT22;50101;49.438;11.098;2023-12-04T13:34:09;19.20;52.20
38237;DHT22;50101;49.438;11.098;2023-12-04T13:36:37;19.30;52.30
38237;DHT22;50101;49.438;11.098;2023-12-04T13:39:04;19.20;52.20
38237;DHT22;50101;49.438;11.098;2023-12-04T13:41:31;19.20;52.20
38237;DHT22;50101;49.438;11.098;2023-12-04T13:44:16;19.20;52.20
38237;DHT22;50101;49.438;11.098;2023-12-04T13:46:43;19.20;52.20
38237;DHT22;50101;49.438;11.098;2023-12-04T13:49:10;19.20;52.20
38237;DHT22;50101;49.438;11.098;2023-12-04T13:51:36;19.20;52.20
38237;DHT22;50101;49.438;11.098;2023-12-04T13:54:06;19.20;52.20
38237;DHT22;50101;49.438;11.098;2023-12-04T13:56:48;19.10;52.00
38237;DHT22;50101;49.438;11.098;2023-12-04T13:59:21;19.00;51.90
38237;DHT22;50101;49.438;11.098;2023-12-04T14:01:49;19.10;52.70
38237;DHT22;50101;49.438;11.098;2023-12-04T14:04:18;19.10;52.80
38237;DHT22;50101;49.438;11.098;2023-12-04T14:06:49;19.20;53.00
38237;DHT22;50101;49.438;11.098;2023-12-04T14:09:17;19.30;52.80
38237;DHT22;50101;49.438;11.098;2023-12-04T14:11:44;19.30;52.50
38237;DHT22;50101;49.438;11.098;2023-12-04T14:14:12;19.30;52.70
38237;DHT22;50101;49.438;11.098;2023-12-04T14:16:40;19.30;52.70
38237;DHT22;50101;49.438;11.098;2023-12-04T14:19:08;19.30;52.10
38237;DHT22;50101;49.438;11.098;2023-12-04T14:21:35;19.30;52.80
38237;DHT22;50101;49.438;11.098;2023-12-04T14:24:02;19.30;52.80
38237;DHT22;50101;49.438;11.098;2023-12-04T14:26:28;19.30;52.90
38237;DHT22;50101;49.438;11.098;2023-12-04T14:28:55;19.30;52.00
38237;DHT22;50101;49.438;11.098;2023-12-04T14:31:24;19.30;52.70
38237;DHT22;50101;49.438;11.098;2023-12-04T14:33:50;19.30;52.60
38237;DHT22;50101;49.438;11.098;2023-12-04T14:36:18;19.30;52.40
38237;DHT22;50101;49.438;11.098;2023-12-04T14:38:45;19.30;52.70
38237;DHT22;50101;49.438;11.098;2023-12-04T14:41:11;19.30;52.90
38237;DHT22;50101;49.438;11.098;2023-12-04T14:43:38;19.30;52.80
38237;DHT22;50101;49.438;11.098;2023-12-04T14:46:05;19.30;53.00
38237;DHT22;50101;49.438;11.098;2023-12-04T14:48:37;19.30;53.00
38237;DHT22;50101;49.438;11.098;2023-12-04T14:51:06;19.30;53.00
38237;DHT22;50101;49.438;11.098;2023-12-04T14:53:33;19.30;53.00
38237;DHT22;50101;49.438;11.098;2023-12-04T14:56:32;19.30;52.70
38237;DHT22;50101;49.438;11.098;2023-12-04T14:59:27;19.30;53.30
38237;DHT22;50101;49.438;11.098;2023-12-04T15:02:13;19.30;53.50
38237;DHT22;50101;49.438;11.098;2023-12-04T15:05:12;19.30;53.40
38237;DHT22;50101;49.438;11.098;2023-12-04T15:08:06;19.30;53.40
38237;DHT22;50101;49.438;11.098;2023-12-04T15:10:48;19.30;53.40
38237;DHT22;50101;49.438;11.098;2023-12-04T15:13:33;19.30;53.70
38237;DHT22;50101;49.438;11.098;2023-12-04T15:16:18;19.30;53.80
38237;DHT22;50101;49.438;11.098;2023-12-04T15:19:09;19.20;53.40
38237;DHT22;50101;49.438;11.098;2023-12-04T15:21:39;19.30;53.40
38237;DHT22;50101;49.438;11.098;2023-12-04T15:24:06;19.30;53.30